Tiempo atmosférico en la estación meteorológica de Cabrales, Asturias (458 m.)



Fecha
DESCASC
Temp. máxima en grados centígrados (hora)
DESCASC
Temp. mínima en grados centígrados (hora)
DESCASC
Temp. media en grados centígrados
DESCASC
Racha de viento máxima en m/sg (hora)
DESCASC
Velocidad máxima media en intervalos de 10 minutos(hora)
DESCASC
Precipitaciones diarias en mm
DESCASC
Precipitaciones de 00:00 a 06:00 en mm
DESCASC
Precipitaciones de 06:00 a 12:00 en mm
DESCASC
Precipitaciones de 12:00 a 18:00 en mm
DESCASC
Precipitaciones de 18:00 a 24:00 en mm
DESCASC
06-12-2018 13.7 (13:40) 6.8 (23:59) 10.3 5.28 (15:00) 3.89 (15:00) 0 0 0 0 0
05-12-2018 17.4 (16:10) 8.2 (09:30) 12.8 10 (12:20) 6.67 (12:20) 0 0 0 0 0
04-12-2018 17.5 (15:40) 10.8 (08:40) 14.2 4.17 (07:50) 2.78 (08:20) 0 0 0 0 0
03-12-2018 14.8 (16:10) 11.5 (00:00) 13.2 10 (09:50) 7.22 (09:50) 6.4 0 5.2 0.8 0.4
02-12-2018 15.9 (12:40) 9.9 (00:00) 12.9 6.39 (23:20) 4.72 (08:40) 1 0 1 0 0
01-12-2018 13.8 (14:50) 6.9 (00:00) 10.4 5.28 (09:20) 4.17 (09:10) 0.6 0 0.6 0 0
30-11-2018 12.9 (16:00) 6.6 (00:00) 9.7 10.56 (14:40) 6.67 (14:10) 0 0 0 0 0
29-11-2018 19.7 (04:40) 9.5 (00:00) 14.6 22.22 (01:50) 13.89 (04:40) 0.4 0 0 0.4 0
28-11-2018 17.1 (15:40) 8.5 (00:00) 12.8 8.89 (22:50) 4.17 (23:10) 0 0 0 0 0
27-11-2018 12.4 (14:50) 4 (00:00) 8.2 6.67 (19:10) 4.44 (19:10) 0 0 0 0 0
26-11-2018 8.8 (20:30) 3.6 (04:00) 6.2 10.83 (15:40) 7.5 (15:40) 11.2 9.8 0.6 0.8 0
25-11-2018 12.5 (13:20) 5 (00:00) 8.8 11.39 (02:30) 8.33 (02:30) 2.6 2.6 0 0 0
24-11-2018 14.8 (14:00) 5.8 (00:00) 10.3 18.33 (20:40) 8.61 (23:30) 1 0 0 0 1
23-11-2018 15.3 (13:30) 5.8 (00:00) 10.6 11.39 (16:00) 7.22 (16:00) 0 0 0 0 0
22-11-2018 15.2 (12:30) 8.1 (00:00) 11.7 21.67 (14:20) 11.39 (00:30) 0 0 0 0 0
21-11-2018 12.4 (14:40) 3 (00:00) 7.7 14.72 (23:50) 9.17 (23:59) 0.2 0 0.2 0 0
20-11-2018 8.7 (00:00) 3.8 (00:00) 6.2 8.33 (09:00) 4.72 (09:00) 3.8 2.6 1.2 0 0
19-11-2018 15.2 (12:30) 7.3 (00:00) 11.3 8.06 (17:00) 5.83 (17:00) 0.4 0.2 0 0 0.2
18-11-2018 14.4 (13:40) 8.3 (00:00) 11.3 6.67 (14:10) 4.72 (14:00) 0.8 0 0 0 0.8
17-11-2018 20.7 (14:40) 10.8 (00:00) 15.8 4.72 (05:20) 3.33 (06:20) 0 0 0 0 0
16-11-2018 20.3 (13:50) 10.5 (00:00) 15.4 5.83 (00:40) 4.17 (00:40) 0 0 0 0 0
15-11-2018 19.9 (12:10) 11.1 (00:00) 15.5 6.11 (23:59) 3.61 (23:59) 0 0 0 0 0
14-11-2018 20.2 (14:50) 8.9 (00:00) 14.6 4.17 (12:40) 2.78 (16:40) 0 0 0 0 0
13-11-2018 15.3 (15:00) 4.9 (00:00) 10.1 5 (09:10) 3.89 (09:30) 0 0 0 0 0
12-11-2018 12.7 (14:30) 8.4 (00:00) 10.5 8.06 (01:50) 5.56 (01:50) 1.6 1.4 0 0 0.2
11-11-2018 18.9 (10:50) 9.4 (00:00) 14.1 23.89 (10:00) 13.61 (04:10) 17 0 0 10.4 6.6
10-11-2018 18.2 (01:10) 10.1 (00:00) 14.2 27.5 (00:20) 16.94 (00:20) 1.6 0.8 0.8 0 0

Gráficas

Temp. máximas Temp. mínimas Temp. medias Precipitaciones Rachas de viento máximas Velocidades máximas media en intervalos de 10 minutos

Datos horarios

Fecha y hora oficial Temperatura (ºC) Velocidad del viento (km/h) Dirección del viento Racha (km/h) Dirección de racha Precipitación (mm) Presión (hPa) Tendencia (hPa) Humedad (%)
2018-12-09 23:00:00 9.4 0 Calma 9 Noroeste 0 -- -- 87
2018-12-09 22:00:00 9.5 5 Oeste 11 Oeste 0 -- -- 87
2018-12-09 21:00:00 9.5 6 Noroeste 14 Noroeste 0 -- -- 88
2018-12-09 20:00:00 9.7 12 Noroeste 15 Noroeste 0 -- -- 88
2018-12-09 19:00:00 9.8 10 Noroeste 18 Noroeste 0 -- -- 88
2018-12-09 18:00:00 10.1 11 Noroeste 21 Noroeste 0 -- -- 88
2018-12-09 17:00:00 10.8 13 Norte 24 Norte 0 -- -- 87
2018-12-09 16:00:00 11.2 21 Noroeste 30 Noroeste 0 -- -- 84
2018-12-09 15:00:00 11.3 21 Noroeste 27 Oeste 0 -- -- 84
2018-12-09 14:00:00 11 15 Oeste 29 Oeste 0 -- -- 85
2018-12-09 13:00:00 9.7 15 Oeste 23 Noroeste 0 -- -- 88
2018-12-09 12:00:00 10.1 13 Oeste 23 Oeste 0 -- -- 83
2018-12-09 11:00:00 10.2 6 Oeste 11 Oeste 0 -- -- 82
2018-12-09 10:00:00 9.7 7 Oeste 16 Norte 0 -- -- 85
2018-12-09 09:00:00 9.7 14 Norte 26 Oeste 0 -- -- 86
2018-12-09 08:00:00 10.3 22 Oeste 31 Oeste 0 -- -- 84
2018-12-09 07:00:00 10.7 13 Noroeste 21 Oeste 0 -- -- 82
2018-12-09 06:00:00 11.2 17 Noroeste 24 Oeste 0 -- -- 82
2018-12-09 05:00:00 11.8 18 Oeste 32 Noroeste 0 -- -- 80
2018-12-09 04:00:00 12.4 14 Noroeste 26 Noroeste 0 -- -- 79
2018-12-09 03:00:00 13.3 18 Noroeste 26 Noroeste 0 -- -- 77
2018-12-09 02:00:00 13.8 17 Noroeste 31 Noroeste 0 -- -- 76
2018-12-09 01:00:00 13.7 22 Noroeste 31 Noroeste 0 -- -- 74
2018-12-09 00:00:00 14 22 Noroeste 32 Noroeste 0 -- -- 70
2018-12-08 23:00:00 14.5 22 Noroeste 40 Noroeste 0 -- -- 69
2018-12-08 22:00:00 15.2 24 Noroeste 38 Noroeste 0 -- -- 58
2018-12-08 21:00:00 13.5 14 Noroeste 27 Noroeste 0 -- -- 54
2018-12-08 20:00:00 13.4 12 Noroeste 23 Norte 0 -- -- 53
2018-12-08 19:00:00 12.6 8 Oeste 15 Oeste 0 -- -- 54
2018-12-08 18:00:00 11.6 12 Oeste 27 Oeste 0 -- -- 61
2018-12-08 17:00:00 12.6 15 Oeste 22 Oeste 0 -- -- 56
2018-12-08 16:00:00 12.8 4 Norte 20 Noroeste 0 -- -- 57
2018-12-08 15:00:00 13.3 8 Sudoeste 11 Sudeste 0 -- -- 51
2018-12-08 14:00:00 12.7 8 Sur 14 Sudeste 0 -- -- 61
2018-12-08 13:00:00 11.1 12 Sudeste 15 Sudeste 0 -- -- 63
2018-12-08 12:00:00 11 7 Sudeste 13 Sudeste 0 -- -- 62
2018-12-08 11:00:00 8.8 3 Sudoeste 12 Este 0 -- -- 73
2018-12-08 10:00:00 7.1 4 Noroeste 12 Noroeste 0 -- -- 79
2018-12-08 09:00:00 7.3 6 Sudoeste 23 Norte 0 -- -- 76
2018-12-08 08:00:00 6.9 12 Noroeste 23 Noroeste 0 -- -- 80
2018-12-08 07:00:00 6.7 18 Oeste 33 Oeste 0 -- -- 87
2018-12-08 06:00:00 7.1 12 Oeste 20 Noroeste 0 -- -- 81
2018-12-08 05:00:00 6.6 11 Noroeste 26 Noroeste 0 -- -- 88
2018-12-08 04:00:00 7.3 19 Noroeste 23 Noroeste 0 -- -- 87
2018-12-08 03:00:00 7.3 15 Noroeste 23 Noroeste 0 -- -- 86
2018-12-08 02:00:00 7.6 17 Oeste 31 Oeste 0 -- -- 86
2018-12-08 01:00:00 8 20 Noroeste 28 Noroeste 0 -- -- 85
2018-12-08 00:00:00 8.4 10 Noroeste 23 Norte 0 -- -- 81
2018-12-07 23:00:00 8.5 12 Noroeste 18 Noroeste 0 -- -- 81
2018-12-07 22:00:00 8.4 12 Noroeste 19 Noroeste 0 -- -- 87
2018-12-07 21:00:00 8.3 11 Noroeste 27 Oeste 0 -- -- 90
2018-12-07 20:00:00 8.4 22 Oeste 48 Oeste 0.4 -- -- 100
2018-12-07 19:00:00 8.8 32 Noroeste 46 Noroeste 0.4 -- -- 100
2018-12-07 18:00:00 9.6 24 Noroeste 47 Oeste 0.4 -- -- 98
2018-12-07 17:00:00 10 24 Noroeste 48 Noroeste 0.2 -- -- 98
2018-12-07 16:00:00 11.7 29 Norte 48 Noroeste 0 -- -- 92
2018-12-07 15:00:00 14.1 27 Noroeste 48 Noroeste 0 -- -- 73
2018-12-07 14:00:00 13.8 28 Noroeste 43 Noroeste 0 -- -- 71
2018-12-07 13:00:00 13.6 16 Noroeste 27 Noroeste 0 -- -- 60
2018-12-07 12:00:00 13.2 5 Sudoeste 11 Noroeste 0 -- -- 55
2018-12-07 11:00:00 8.7 0 Calma 10 Sudoeste 0 -- -- 68
2018-12-07 10:00:00 7 8 Sudeste 13 Sur 0 -- -- 74
2018-12-07 09:00:00 5.2 2 Norte 9 Sudoeste 0 -- -- 83
2018-12-07 08:00:00 6 3 Sudoeste 6 Sudoeste 0 -- -- 80
2018-12-07 07:00:00 4.7 7 Sudoeste 11 Sudeste 0 -- -- 92
2018-12-07 06:00:00 5.5 0 Calma 4 Sudoeste 0 -- -- 92
2018-12-07 05:00:00 5.3 0 Calma 4 Sudeste 0 -- -- 91
2018-12-07 04:00:00 5.4 2 Sudeste 5 Este 0 -- -- 91
2018-12-07 03:00:00 5.5 3 Este 6 Este 0 -- -- 93
2018-12-07 02:00:00 6.1 0 Calma 4 Sudoeste 0 -- -- 96
2018-12-07 01:00:00 6 3 Este 8 Sudeste 0 -- -- 97
2018-12-07 00:00:00 6.8 3 Este 8 Sudeste 0 -- -- 96
2018-12-06 23:00:00 7.3 3 Sur 9 Sudeste 0 -- -- 96
2018-12-06 22:00:00 8.1 3 Este 5 Sudeste 0 -- -- 94
2018-12-06 21:00:00 8.8 4 Sudeste 8 Sudeste 0 -- -- 92
2018-12-06 20:00:00 10 4 Sudeste 6 Sudeste 0 -- -- 86
2018-12-06 19:00:00 10.7 0 Calma 5 Sudoeste 0 -- -- 83
2018-12-06 18:00:00 11 5 Sudoeste 13 Oeste 0 -- -- 83
2018-12-06 17:00:00 11.7 9 Oeste 15 Oeste 0 -- -- 80
2018-12-06 16:00:00 12.2 11 Oeste 17 Oeste 0 -- -- 78
2018-12-06 15:00:00 12.5 14 Oeste 19 Oeste 0 -- -- 77
2018-12-06 14:00:00 13.1 3 Noroeste 6 Noroeste 0 -- -- 82
2018-12-06 13:00:00 13 6 Sudoeste 8 Sudoeste 0 -- -- 84
2018-12-06 12:00:00 11.7 0 Calma 5 Oeste 0 -- -- 86
2018-12-06 11:00:00 10.6 3 Sur 12 Sudeste 0 -- -- 89
2018-12-06 10:00:00 9.4 6 Sudeste 12 Este 0 -- -- 95
2018-12-06 09:00:00 9.4 8 Sudeste 12 Sudeste 0 -- -- 97
2018-12-06 08:00:00 8.8 3 Sudoeste 7 Este 0 -- -- 98
2018-12-06 07:00:00 9 5 Sudeste 6 Sudeste 0 -- -- 96
2018-12-06 06:00:00 9.5 4 Sudeste 6 Este 0 -- -- 96
2018-12-06 05:00:00 9.1 7 Oeste 9 Oeste 0 -- -- 97
2018-12-06 04:00:00 9.6 0 Calma 5 Sudeste 0 -- -- 93
2018-12-06 03:00:00 10 3 Sudeste 9 Sudeste 0 -- -- 91
2018-12-06 02:00:00 10.4 5 Sudeste 8 Sudeste 0 -- -- 89
2018-12-06 01:00:00 10.9 6 Sudeste 17 Sudeste 0 -- -- 86
2018-12-06 00:00:00 11.5 9 Sudeste 16 Sudeste 0 -- -- 83
2018-12-05 23:00:00 12.9 2 Oeste 9 Oeste 0 -- -- 77
2018-12-05 22:00:00 13.5 0 Calma 7 Sudoeste 0 -- -- 73
2018-12-05 21:00:00 13.5 2 Sudeste 8 Sudoeste 0 -- -- 71
2018-12-05 20:00:00 14.2 4 Sur 10 Sudeste 0 -- -- 70
2018-12-05 19:00:00 14 2 Sur 10 Noroeste 0 -- -- 71
2018-12-05 18:00:00 14.1 8 Oeste 14 Oeste 0 -- -- 71
2018-12-05 17:00:00 15.2 3 Sudeste 9 Sudeste 0 -- -- 62
2018-12-05 16:00:00 17.2 5 Sudeste 15 Sudeste 0 -- -- 62
2018-12-05 15:00:00 16.4 6 Oeste 13 Sudoeste 0 -- -- 68
2018-12-05 14:00:00 15 4 Oeste 15 Oeste 0 -- -- 80
2018-12-05 13:00:00 13.3 6 Norte 36 Oeste 0 -- -- 87
2018-12-05 12:00:00 11.8 18 Sudeste 22 Sudeste 0 -- -- 86
2018-12-05 11:00:00 10.7 4 Sur 12 Sudeste 0 -- -- 97
2018-12-05 10:00:00 8.9 0 Calma 9 Sudoeste 0 -- -- 99
2018-12-05 09:00:00 8.3 7 Sudeste 8 Sudeste 0 -- -- 99
2018-12-05 08:00:00 8.5 0 Calma 10 Oeste 0 -- -- 99
2018-12-05 07:00:00 8.8 3 Oeste 16 Noroeste 0 -- -- 97
2018-12-05 06:00:00 9.6 11 Noroeste 19 Oeste 0 -- -- 93
2018-12-05 05:00:00 10.3 9 Oeste 13 Oeste 0 -- -- 82
2018-12-05 04:00:00 11.7 3 Noroeste 10 Oeste 0 -- -- 68
2018-12-05 03:00:00 12.2 4 Oeste 10 Oeste 0 -- -- 62
2018-12-05 02:00:00 12 0 Calma 5 Este 0 -- -- 73
2018-12-05 01:00:00 12 0 Calma 5 Nordeste 0 -- -- 74
2018-12-05 00:00:00 12 2 Oeste 5 Nordeste 0 -- -- 82
2018-12-04 23:00:00 11.8 0 Calma 9 Sudeste 0 -- -- 81
2018-12-04 22:00:00 12.2 5 Este 7 Este 0 -- -- 84
2018-12-04 21:00:00 13 2 Nordeste 4 Sudoeste 0 -- -- 89
2018-12-04 20:00:00 13.2 3 Sudoeste 4 Oeste 0 -- -- 87
2018-12-04 19:00:00 13.6 0 Calma 5 Este 0 -- -- 89
2018-12-04 18:00:00 14.3 5 Sudoeste 6 Sudoeste 0 -- -- 87
2018-12-04 17:00:00 15.6 4 Sudeste 9 Sur 0 -- -- 79
2018-12-04 16:00:00 17.1 3 Sur 5 Oeste 0 -- -- 81
2018-12-04 15:00:00 17.4 3 Sur 9 Sudeste 0 -- -- 75
2018-12-04 14:00:00 16.6 5 Sur 9 Sur 0 -- -- 82
2018-12-04 13:00:00 14.7 3 Sur 8 Sur 0 -- -- 100
2018-12-04 12:00:00 12.4 6 Sudoeste 10 Sudoeste 0 -- -- 100
2018-12-04 11:00:00 11.7 2 Oeste 7 Oeste 0 -- -- 100
2018-12-04 10:00:00 11.2 2 Sudeste 6 Sudeste 0 -- -- 100
2018-12-04 09:00:00 10.8 3 Sudeste 14 Este 0 -- -- 100
2018-12-04 08:00:00 11.1 9 Sudeste 15 Sudeste 0 -- -- 100
2018-12-04 07:00:00 11.5 5 Sudeste 12 Sudeste 0 -- -- 100
2018-12-04 06:00:00 11.7 8 Sudeste 13 Este 0 -- -- 100
2018-12-04 05:00:00 11.9 5 Este 11 Sudeste 0 -- -- 100
2018-12-04 04:00:00 12.1 6 Sudeste 10 Sudeste 0 -- -- 100
2018-12-04 03:00:00 12.3 2 Sudeste 11 Sudeste 0 -- -- 100
2018-12-04 02:00:00 12.4 4 Sudeste 12 Sudeste 0 -- -- 100
2018-12-04 01:00:00 12.6 7 Sudeste 11 Sudeste 0 -- -- 100
2018-12-04 00:00:00 12.6 0 Calma 12 Sudeste 0 -- -- 100
2018-12-03 23:00:00 12.9 9 Sudeste 17 Este 0.2 -- -- 100
2018-12-03 22:00:00 13 5 Sudeste 9 Sudeste 0 -- -- 100
2018-12-03 21:00:00 13.1 3 Sur 8 Sudeste 0 -- -- 100
2018-12-03 20:00:00 13.3 6 Sudeste 11 Sudeste 0 -- -- 99
2018-12-03 19:00:00 13.8 3 Sudeste 8 Sur 0.2 -- -- 97
2018-12-03 18:00:00 14.4 4 Sur 6 Sudoeste 0 -- -- 95
2018-12-03 17:00:00 14.4 4 Sudoeste 10 Sudoeste 0 -- -- 97
2018-12-03 16:00:00 14.6 2 Sur 13 Oeste 0.6 -- -- 97
2018-12-03 15:00:00 13.9 4 Nordeste 13 Sudeste 0 -- -- 98
2018-12-03 14:00:00 13.3 8 Sudeste 15 Sur 0 -- -- 100
2018-12-03 13:00:00 12.5 6 Sudeste 12 Este 0.2 -- -- 99
2018-12-03 12:00:00 12.2 0 Calma 16 Sudeste 0.4 -- -- 99
2018-12-03 11:00:00 12.2 8 Sudeste 31 Oeste 3.4 -- -- 96
2018-12-03 10:00:00 12.5 23 Oeste 36 Oeste 1.4 -- -- 91
2018-12-03 09:00:00 13.4 3 Sudeste 9 Oeste 0 -- -- 75
2018-12-03 08:00:00 12.5 2 Oeste 8 Sudoeste 0 -- -- 79
2018-12-03 07:00:00 12.3 2 Sudoeste 8 Sudoeste 0 -- -- 81
2018-12-03 06:00:00 12.3 0 Calma 6 Oeste 0 -- -- 80
2018-12-03 05:00:00 12 5 Oeste 8 Oeste 0 -- -- 81
2018-12-03 04:00:00 12.2 3 Sudeste 10 Sudeste 0 -- -- 82
2018-12-03 03:00:00 11.8 6 Este 15 Sudeste 0 -- -- 81
2018-12-03 02:00:00 11.8 11 Este 20 Sur 0 -- -- 81
2018-12-03 01:00:00 12.7 6 Sudeste 22 Sur 0 -- -- 74
2018-12-03 00:00:00 13 9 Sudoeste 23 Sudeste 0 -- -- 70
2018-12-02 23:00:00 12.9 8 Este 17 Sur 0 -- -- 69
2018-12-02 22:00:00 12.5 7 Sur 13 Sur 0 -- -- 71
2018-12-02 21:00:00 13.2 0 Calma 5 Sudoeste 0 -- -- 70
2018-12-02 20:00:00 13.1 4 Sudoeste 14 Sur 0 -- -- 78
2018-12-02 19:00:00 12.4 6 Este 14 Este 0 -- -- 86
2018-12-02 18:00:00 13.1 12 Sudeste 14 Sudeste 0 -- -- 81
2018-12-02 17:00:00 13.8 8 Este 10 Este 0 -- -- 81
2018-12-02 16:00:00 14.7 8 Sudeste 9 Sudeste 0 -- -- 73
2018-12-02 15:00:00 15.4 3 Oeste 12 Oeste 0 -- -- 72
2018-12-02 14:00:00 15.6 0 Calma 8 Sur 0 -- -- 70
2018-12-02 13:00:00 15.7 4 Sudeste 11 Sudeste 0 -- -- 71
2018-12-02 12:00:00 14.8 2 Sudoeste 5 Sudoeste 0.6 -- -- 74
2018-12-02 11:00:00 12.8 0 Calma 7 Sudoeste 0 -- -- 80
2018-12-02 10:00:00 11.6 3 Sudeste 12 Sudoeste 0 -- -- 83
2018-12-02 09:00:00 10.1 5 Sudoeste 22 Sudeste 0.2 -- -- 91
2018-12-02 08:00:00 11 12 Este 18 Este 0.2 -- -- 88
2018-12-02 07:00:00 11.2 3 Sudoeste 17 Sur 0 -- -- 81
2018-12-02 06:00:00 11 8 Sudeste 20 Sudeste 0 -- -- 82
2018-12-02 05:00:00 11.5 14 Sudeste 16 Sudeste 0 -- -- 81
2018-12-02 04:00:00 11.4 6 Sudoeste 11 Oeste 0 -- -- 82
2018-12-02 03:00:00 11.1 5 Sudeste 10 Sudeste 0 -- -- 85
2018-12-02 02:00:00 9.9 6 Este 12 Este 0 -- -- 92
2018-12-02 01:00:00 10.7 6 Sudeste 8 Sudeste 0 -- -- 90
2018-12-02 00:00:00 10.9 4 Sudeste 6 Este 0 -- -- 87
2018-12-01 23:00:00 11.1 4 Oeste 13 Sudeste 0 -- -- 89
2018-12-01 22:00:00 11.4 13 Sudeste 17 Sudeste 0 -- -- 89
2018-12-01 21:00:00 12.1 2 Sur 9 Oeste 0 -- -- 82
2018-12-01 20:00:00 12.1 3 Sudeste 12 Sudeste 0 -- -- 85
2018-12-01 19:00:00 12.4 12 Sudeste 15 Este 0 -- -- 83
2018-12-01 18:00:00 12.7 4 Oeste 10 Sudoeste 0 -- -- 83
2018-12-01 17:00:00 13 3 Sudeste 17 Sudeste 0 -- -- 80
2018-12-01 16:00:00 13.4 6 Este 10 Este 0 -- -- 81
2018-12-01 15:00:00 13.8 2 Sudoeste 7 Sudoeste 0 -- -- 80
2018-12-01 14:00:00 13.2 4 Sudoeste 9 Sudoeste 0 -- -- 83
2018-12-01 13:00:00 12.1 7 Sudeste 17 Sudeste 0 -- -- 86
2018-12-01 12:00:00 9.4 4 Sudeste 12 Sudoeste 0 -- -- 89
2018-12-01 11:00:00 8.1 5 Sudoeste 15 Sudeste 0 -- -- 93
2018-12-01 10:00:00 7.2 2 Sur 19 Este 0.2 -- -- 92
2018-12-01 09:00:00 7.1 13 Sudeste 17 Sudeste 0.2 -- -- 88
2018-12-01 08:00:00 7.8 2 Oeste 10 Sudeste 0.2 -- -- 79
2018-12-01 07:00:00 7.8 6 Sudeste 13 Este 0 -- -- 76
2018-12-01 06:00:00 7.7 6 Sudeste 13 Sudeste 0 -- -- 77
2018-12-01 05:00:00 7.7 5 Sudeste 7 Sudeste 0 -- -- 76
2018-12-01 04:00:00 7.3 5 Sudoeste 9 Sudeste 0 -- -- 78
2018-12-01 03:00:00 7.7 3 Sur 8 Sudeste 0 -- -- 75
2018-12-01 02:00:00 7.4 3 Este 12 Sudoeste 0 -- -- 76
2018-12-01 01:00:00 7.2 4 Sur 13 Sudeste 0 -- -- 77
2018-12-01 00:00:00 6.9 8 Sur 15 Sudeste 0 -- -- 78
2018-11-30 23:00:00 7.3 0 Calma 7 Sudoeste 0 -- -- 74
2018-11-30 22:00:00 7.1 4 Sudeste 18 Sudeste 0 -- -- 75
2018-11-30 21:00:00 7.1 9 Sudeste 19 Sudeste 0 -- -- 77
2018-11-30 20:00:00 8 8 Sudeste 11 Este 0 -- -- 74
2018-11-30 19:00:00 9.3 4 Noroeste 20 Oeste 0 -- -- 66
2018-11-30 18:00:00 10.1 16 Oeste 22 Oeste 0 -- -- 65
2018-11-30 17:00:00 10.7 14 Oeste 26 Noroeste 0 -- -- 63
2018-11-30 16:00:00 12.9 13 Noroeste 24 Oeste 0 -- -- 59
2018-11-30 15:00:00 11.1 14 Noroeste 38 Oeste 0 -- -- 66
2018-11-30 14:00:00 12.6 21 Noroeste 31 Noroeste 0 -- -- 64
2018-11-30 13:00:00 11.6 13 Noroeste 26 Noroeste 0 -- -- 64
2018-11-30 12:00:00 10.3 20 Noroeste 29 Noroeste 0 -- -- 67
2018-11-30 11:00:00 9.8 6 Oeste 19 Noroeste 0 -- -- 66
2018-11-30 10:00:00 8.7 14 Noroeste 21 Noroeste 0 -- -- 72
2018-11-30 09:00:00 7.9 5 Oeste 13 Noroeste 0 -- -- 71
2018-11-30 08:00:00 7.8 3 Oeste 5 Norte 0 -- -- 74
2018-11-30 07:00:00 7.6 3 Oeste 5 Sudoeste 0 -- -- 84
2018-11-30 06:00:00 7.3 0 Calma 6 Sudoeste 0 -- -- 93
2018-11-30 05:00:00 7.4 2 Oeste 5 Oeste 0 -- -- 99
2018-11-30 04:00:00 7.5 3 Oeste 5 Oeste 0 -- -- 99
2018-11-30 03:00:00 7.8 0 Calma 5 Norte 0 -- -- 99
2018-11-30 02:00:00 8.5 0 Calma 4 Sudeste 0 -- -- 98
2018-11-30 01:00:00 9.2 0 Calma 5 Oeste 0 -- -- 99
2018-11-30 00:00:00 9.5 0 Calma 6 Sudoeste 0 -- -- 98
2018-11-29 23:00:00 9.6 5 Sudoeste 6 Sudoeste 0 -- -- 99
2018-11-29 22:00:00 10.1 4 Sudoeste 6 Sudoeste 0 -- -- 99
2018-11-29 21:00:00 10.2 4 Sudoeste 12 Sudeste 0 -- -- 99
2018-11-29 20:00:00 10.3 10 Sudeste 14 Sudeste 0 -- -- 97
2018-11-29 19:00:00 10.7 3 Este 12 Sudeste 0 -- -- 95
2018-11-29 18:00:00 11.1 7 Este 11 Este 0 -- -- 92
2018-11-29 17:00:00 11.4 10 Este 26 Este 0 -- -- 90
2018-11-29 16:00:00 11.9 9 Sur 28 Este 0.4 -- -- 87
2018-11-29 15:00:00 14.2 10 Este 26 Este 0 -- -- 69
2018-11-29 14:00:00 16.1 7 Sudoeste 30 Este 0 -- -- 56
2018-11-29 13:00:00 17.8 21 Este 39 Este 0 -- -- 47
2018-11-29 12:00:00 18 9 Este 24 Este 0 -- -- 51
2018-11-29 11:00:00 17 3 Este 27 Norte 0 -- -- 44
2018-11-29 10:00:00 16.6 9 Nordeste 27 Sudoeste 0 -- -- 37
2018-11-29 09:00:00 17.2 16 Sudoeste 44 Sudoeste 0 -- -- 29
2018-11-29 08:00:00 17.3 6 Nordeste 62 Sudoeste 0 -- -- 20
2018-11-29 07:00:00 18 13 Sudoeste 53 Sudoeste 0 -- -- 15
2018-11-29 06:00:00 18.9 25 Sudoeste 64 Sudoeste 0 -- -- 12
2018-11-29 05:00:00 19 26 Sudoeste 79 Sudoeste 0 -- -- 19
2018-11-29 04:00:00 19 39 Sudoeste 80 Oeste 0 -- -- 19
2018-11-29 03:00:00 18 34 Sudoeste 77 Oeste 0 -- -- 22
2018-11-29 02:00:00 18.2 41 Oeste 80 Sudoeste 0 -- -- 21
2018-11-29 01:00:00 15.3 7 Norte 24 Norte 0 -- -- 32
2018-11-29 00:00:00 13.3 4 Nordeste 21 Sudeste 0 -- -- 45
2018-11-28 23:00:00 14.3 12 Sudeste 32 Sur 0 -- -- 43
2018-11-28 22:00:00 14.8 3 Nordeste 10 Oeste 0 -- -- 38
2018-11-28 21:00:00 15.2 3 Noroeste 8 Nordeste 0 -- -- 39
2018-11-28 14:00:00 -- -- -- -- -- -- -- -- --
2018-11-28 13:00:00 -- -- -- -- -- -- -- -- --
2018-11-28 12:00:00 -- -- -- -- -- -- -- -- --
2018-11-28 11:00:00 12.5 12 Oeste 15 Oeste 0 -- -- 43
2018-11-28 10:00:00 10.7 8 Oeste 14 Oeste 0 -- -- 44
2018-11-28 09:00:00 9.7 3 Sudoeste 6 Sudeste 0 -- -- 49
2018-11-28 08:00:00 9.2 4 Nordeste 13 Sudoeste 0 -- -- 50
2018-11-28 07:00:00 8.5 9 Sur 13 Sudoeste 0 -- -- 56
2018-11-28 06:00:00 10.4 2 Sudoeste 9 Sudoeste 0 -- -- 45
2018-11-28 05:00:00 9.9 4 Oeste 10 Sudeste 0 -- -- 49
2018-11-28 04:00:00 9.1 7 Sudeste 18 Este 0 -- -- 55
2018-11-28 03:00:00 9.1 8 Sur 12 Sudeste 0 -- -- 55
2018-11-28 02:00:00 8.7 6 Sudoeste 9 Sudeste 0 -- -- 65
2018-11-28 01:00:00 8.9 4 Sur 16 Sudeste 0 -- -- 62
2018-11-28 00:00:00 9.4 4 Sudeste 13 Oeste 0 -- -- 64
2018-11-27 23:00:00 8.7 5 Oeste 10 Oeste 0 -- -- 68
2018-11-27 22:00:00 8.8 0 Calma 6 Noroeste 0 -- -- 67
2018-11-27 21:00:00 8.7 5 Noroeste 15 Este 0 -- -- 71
2018-11-27 20:00:00 8.8 5 Norte 24 Sudeste 0 -- -- 71
2018-11-27 19:00:00 9.1 11 Sudeste 15 Sudeste 0 -- -- 69
2018-11-27 18:00:00 9.6 3 Sur 17 Oeste 0 -- -- 63
2018-11-27 17:00:00 10.2 10 Oeste 15 Oeste 0 -- -- 61
2018-11-27 16:00:00 11.3 7 Oeste 11 Oeste 0 -- -- 61
2018-11-27 15:00:00 12.4 3 Sudeste 6 Sudoeste 0 -- -- 68
2018-11-27 14:00:00 11.5 5 Sudoeste 8 Sudoeste 0 -- -- 68
2018-11-27 13:00:00 10.9 4 Sudoeste 8 Sudoeste 0 -- -- 68
2018-11-27 12:00:00 9.5 3 Sudoeste 6 Sudoeste 0 -- -- 69
2018-11-27 11:00:00 7.7 3 Sudoeste 4 Este 0 -- -- 69
2018-11-27 10:00:00 6.2 2 Oeste 8 Sudoeste 0 -- -- 71
2018-11-27 09:00:00 4.5 4 Este 10 Este 0 -- -- 78
2018-11-27 08:00:00 4.1 6 Sudeste 12 Este 0 -- -- 83
2018-11-27 07:00:00 4.9 2 Sudeste 12 Sudeste 0 -- -- 80
2018-11-27 06:00:00 4.8 9 Sudeste 17 Este 0 -- -- 85
2018-11-27 05:00:00 5.4 4 Este 6 Este 0 -- -- 82
2018-11-27 04:00:00 5.7 5 Este 9 Sur 0 -- -- 83
2018-11-27 03:00:00 6 3 Este 4 Este 0 -- -- 85
2018-11-27 02:00:00 5.9 0 Calma 8 Nordeste 0 -- -- 92
2018-11-27 01:00:00 6.5 4 Este 8 Oeste 0 -- -- 91
2018-11-27 00:00:00 7.4 3 Oeste 10 Oeste 0 -- -- 87
2018-11-26 23:00:00 7.6 7 Oeste 21 Noroeste 0 -- -- 87
2018-11-26 22:00:00 8.2 12 Noroeste 19 Oeste 0 -- -- 82
2018-11-26 21:00:00 8.4 11 Noroeste 34 Oeste 0 -- -- 81
2018-11-26 20:00:00 8.2 15 Oeste 25 Noroeste 0 -- -- 84
2018-11-26 19:00:00 7.9 17 Noroeste 23 Noroeste 0 -- -- 90
2018-11-26 18:00:00 7.5 13 Norte 22 Noroeste 0 -- -- 94
2018-11-26 17:00:00 7.6 19 Oeste 33 Noroeste 0.2 -- -- 93
2018-11-26 16:00:00 8.4 17 Noroeste 39 Oeste 0 -- -- 88
2018-11-26 15:00:00 7.9 20 Noroeste 37 Oeste 0 -- -- 95
2018-11-26 14:00:00 7.4 18 Noroeste 35 Noroeste 0 -- -- 98
2018-11-26 13:00:00 7 17 Noroeste 33 Noroeste 0.6 -- -- 98
2018-11-26 12:00:00 6.4 15 Norte 24 Noroeste 0 -- -- 99
2018-11-26 11:00:00 5.8 16 Noroeste 27 Noroeste 0 -- -- 100
2018-11-26 10:00:00 5.5 12 Noroeste 23 Noroeste 0 -- -- 100
2018-11-26 09:00:00 4.9 17 Noroeste 23 Oeste 0.2 -- -- 100
2018-11-26 08:00:00 4.6 9 Noroeste 22 Noroeste 0.2 -- -- 98
2018-11-26 07:00:00 4.5 5 Noroeste 12 Norte 0.2 -- -- 97
2018-11-26 06:00:00 3.9 2 Este 10 Norte 0 -- -- 99
2018-11-26 05:00:00 3.7 9 Noroeste 15 Noroeste 0.2 -- -- 98
2018-11-26 04:00:00 3.6 5 Noroeste 15 Noroeste 1.2 -- -- 98
2018-11-26 03:00:00 4.1 11 Oeste 23 Oeste 4.2 -- -- 95
2018-11-26 02:00:00 5.2 10 Oeste 17 Sudoeste 4 -- -- 95
2018-11-26 01:00:00 6 3 Nordeste 7 Nordeste 0.2 -- -- 91
2018-11-26 00:00:00 6.4 9 Sudeste 15 Este 0 -- -- 86
2018-11-25 23:00:00 6.5 10 Sudeste 13 Sudeste 0 -- -- 86
2018-11-25 22:00:00 6.6 6 Oeste 8 Sudoeste 0 -- -- 85
2018-11-25 21:00:00 7 2 Sudeste 9 Sudeste 0 -- -- 80
2018-11-25 20:00:00 7.2 3 Sudeste 10 Sudeste 0 -- -- 81
2018-11-25 19:00:00 7.3 6 Sudeste 15 Sudeste 0 -- -- 80
2018-11-25 18:00:00 7.6 4 Sudeste 22 Este 0 -- -- 78
2018-11-25 17:00:00 8.7 9 Este 24 Este 0 -- -- 75
2018-11-25 16:00:00 11.4 3 Sur 10 Este 0 -- -- 61
2018-11-25 15:00:00 12.1 4 Sudoeste 15 Oeste 0 -- -- 56
2018-11-25 14:00:00 11.5 5 Noroeste 13 Sudoeste 0 -- -- 61
2018-11-25 13:00:00 12.1 7 Sudoeste 12 Sur 0 -- -- 59
2018-11-25 12:00:00 9.5 4 Sudeste 9 Sudeste 0 -- -- 78
2018-11-25 11:00:00 8.7 6 Sudoeste 11 Sudoeste 0 -- -- 79
2018-11-25 10:00:00 6.3 0 Calma 14 Oeste 0 -- -- 85
2018-11-25 09:00:00 5 9 Oeste 21 Norte 0 -- -- 94
2018-11-25 08:00:00 5.2 14 Noroeste 22 Noroeste 0 -- -- 95
2018-11-25 07:00:00 5.7 15 Noroeste 28 Noroeste 0 -- -- 98
2018-11-25 06:00:00 5.7 17 Noroeste 35 Noroeste 0 -- -- 100
2018-11-25 05:00:00 6.3 23 Noroeste 37 Noroeste 0.2 -- -- 100
2018-11-25 04:00:00 6.5 26 Noroeste 40 Noroeste 0 -- -- 100
2018-11-25 03:00:00 6.6 28 Noroeste 41 Noroeste 0.4 -- -- 100
2018-11-25 02:00:00 7.1 18 Noroeste 39 Oeste 1 -- -- 100
2018-11-25 01:00:00 8.3 21 Noroeste 36 Oeste 1 -- -- 100
2018-11-25 00:00:00 8.9 26 Oeste 42 Oeste 1 -- -- 98
2018-11-24 23:00:00 10.6 14 Oeste 26 Sudoeste 0 -- -- 80
2018-11-24 22:00:00 10.3 14 Noroeste 37 Sudoeste 0 -- -- 77
2018-11-24 21:00:00 12.1 16 Sur 66 Sur 0 -- -- 62
2018-11-24 20:00:00 11.8 27 Sudoeste 62 Sudoeste 0 -- -- 65
2018-11-24 19:00:00 9.7 9 Sur 18 Este 0 -- -- 75
2018-11-24 18:00:00 10.4 18 Sudeste 27 Sudeste 0 -- -- 71
2018-11-24 17:00:00 10.9 16 Oeste 21 Oeste 0 -- -- 68
2018-11-24 16:00:00 12.3 10 Sudoeste 28 Sudeste 0 -- -- 64
2018-11-24 15:00:00 12.9 12 Sudeste 30 Sudeste 0 -- -- 63
2018-11-24 14:00:00 14.8 10 Sudeste 26 Sudeste 0 -- -- 57
2018-11-24 13:00:00 12.6 9 Sudeste 16 Este 0 -- -- 67
2018-11-24 12:00:00 10.1 2 Sudeste 9 Sudoeste 0 -- -- 73
2018-11-24 11:00:00 8.7 2 Norte 9 Sudoeste 0 -- -- 79
2018-11-24 10:00:00 7.2 2 Oeste 6 Sudoeste 0 -- -- 82
2018-11-24 09:00:00 6.7 4 Sudeste 11 Sudeste 0 -- -- 81
2018-11-24 08:00:00 6.7 4 Nordeste 7 Oeste 0 -- -- 80
2018-11-24 07:00:00 7.2 2 Sudeste 6 Sudoeste 0 -- -- 76
2018-11-24 06:00:00 6.9 3 Sudoeste 8 Sudoeste 0 -- -- 79
2018-11-24 05:00:00 7.2 3 Norte 8 Sudoeste 0 -- -- 78
2018-11-24 04:00:00 7.4 3 Oeste 12 Nordeste 0 -- -- 78
2018-11-24 03:00:00 7.2 4 Nordeste 8 Oeste 0 -- -- 82
2018-11-24 02:00:00 6.9 4 Oeste 10 Oeste 0 -- -- 85
2018-11-24 01:00:00 5.8 5 Oeste 11 Oeste 0 -- -- 92
2018-11-24 00:00:00 5.9 2 Oeste 10 Nordeste 0 -- -- 92
2018-11-23 23:00:00 6.1 3 Noroeste 5 Oeste 0 -- -- 91
2018-11-23 22:00:00 6.6 0 Calma 4 Sudeste 0 -- -- 91
2018-11-23 21:00:00 6.8 3 Sudoeste 7 Sur 0 -- -- 87
2018-11-23 20:00:00 7.8 2 Sudeste 5 Sur 0 -- -- 84
2018-11-23 19:00:00 8.6 0 Calma 8 Sudoeste 0 -- -- 78
2018-11-23 18:00:00 8.6 5 Sudoeste 33 Sudoeste 0 -- -- 80
2018-11-23 17:00:00 9.9 17 Oeste 36 Sudoeste 0 -- -- 75
2018-11-23 16:00:00 12.7 26 Sudoeste 41 Sudoeste 0 -- -- 45
2018-11-23 15:00:00 13.2 6 Oeste 27 Sudoeste 0 -- -- 46
2018-11-23 14:00:00 14.3 15 Sudoeste 27 Sudoeste 0 -- -- 44
2018-11-23 13:00:00 14.8 7 Sudoeste 20 Sudoeste 0 -- -- 43
2018-11-23 12:00:00 14 8 Sudoeste 24 Sudoeste 0 -- -- 53
2018-11-23 11:00:00 10.9 5 Este 17 Sur 0 -- -- 64
2018-11-23 10:00:00 8.6 8 Noroeste 10 Noroeste 0 -- -- 73
2018-11-23 09:00:00 8.5 0 Calma 11 Sudoeste 0 -- -- 69
2018-11-23 08:00:00 8.8 3 Sudeste 14 Sur 0 -- -- 66
2018-11-23 07:00:00 8.2 6 Sudeste 17 Este 0 -- -- 70
2018-11-23 06:00:00 8.3 13 Sudeste 18 Sudeste 0 -- -- 71
2018-11-23 05:00:00 9.1 5 Sudeste 14 Nordeste 0 -- -- 66
2018-11-23 04:00:00 9.7 8 Este 23 Sudoeste 0 -- -- 62
2018-11-23 03:00:00 10.4 6 Sudeste 40 Oeste 0 -- -- 60
2018-11-23 02:00:00 9.3 10 Sudoeste 18 Sur 0 -- -- 65
2018-11-23 01:00:00 10 10 Sur 22 Sur 0 -- -- 62
2018-11-23 00:00:00 9.4 3 Sudeste 17 Sudeste 0 -- -- 62
2018-11-22 23:00:00 9.4 8 Este 22 Oeste 0 -- -- 64
2018-11-22 22:00:00 10.4 9 Sudeste 24 Sur 0 -- -- 58
2018-11-22 21:00:00 9.9 6 Nordeste 34 Sur 0 -- -- 61
2018-11-22 20:00:00 9.9 10 Sudeste 64 Sudoeste 0 -- -- 58
2018-11-22 19:00:00 10.1 8 Oeste 29 Sudoeste 0 -- -- 60
2018-11-22 18:00:00 11.7 24 Sudoeste 50 Sudoeste 0 -- -- 52
2018-11-22 17:00:00 12 5 Sur 43 Sudoeste 0 -- -- 51
2018-11-22 16:00:00 13.1 26 Sudoeste 60 Oeste 0 -- -- 45
2018-11-22 15:00:00 14.1 32 Sudoeste 78 Sudoeste 0 -- -- 43
2018-11-22 14:00:00 12.9 31 Sudoeste 72 Sudoeste 0 -- -- 42
2018-11-22 13:00:00 13.4 33 Sudoeste 70 Sudoeste 0 -- -- 44
2018-11-22 12:00:00 14.1 31 Sudoeste 53 Sudoeste 0 -- -- 42
2018-11-22 11:00:00 13 26 Oeste 69 Sudoeste 0 -- -- 45
2018-11-22 10:00:00 11.8 39 Sudoeste 65 Sudoeste 0 -- -- 51
2018-11-22 09:00:00 9.3 10 Sur 23 Sur 0 -- -- 60
2018-11-22 08:00:00 8.5 6 Sudeste 23 Oeste 0 -- -- 62
2018-11-22 07:00:00 8.5 10 Sudeste 21 Sur 0 -- -- 63
2018-11-22 06:00:00 10.1 12 Oeste 36 Sudoeste 0 -- -- 56
2018-11-22 05:00:00 10 9 Sudoeste 30 Sur 0 -- -- 54
2018-11-22 04:00:00 8.7 7 Sur 23 Sudoeste 0 -- -- 64
2018-11-22 03:00:00 8.7 13 Sudeste 38 Oeste 0 -- -- 64
2018-11-22 02:00:00 9.7 14 Sur 62 Sudoeste 0 -- -- 60
2018-11-22 01:00:00 9.6 12 Sur 64 Sudoeste 0 -- -- 62
2018-11-22 00:00:00 10.9 33 Sudoeste 53 Sudoeste 0 -- -- 56
2018-11-21 23:00:00 9.6 14 Sudeste 48 Oeste 0 -- -- 64
2018-11-21 22:00:00 11.1 26 Sudoeste 49 Sudoeste 0 -- -- 55
2018-11-21 21:00:00 11 25 Sudoeste 42 Sudoeste 0 -- -- 54
2018-11-21 20:00:00 10.5 11 Sudoeste 50 Sudoeste 0 -- -- 60
2018-11-21 19:00:00 9.9 13 Sudoeste 49 Sudoeste 0 -- -- 65
2018-11-21 18:00:00 10.5 9 Sudoeste 43 Sudoeste 0 -- -- 65
2018-11-21 17:00:00 10.8 14 Sur 41 Oeste 0 -- -- 66
2018-11-21 16:00:00 10.5 6 Sudeste 17 Sudeste 0 -- -- 67
2018-11-21 15:00:00 11.7 6 Sur 21 Sudeste 0 -- -- 63
2018-11-21 14:00:00 11.2 5 Sudeste 13 Sudeste 0 -- -- 68
2018-11-21 13:00:00 11.8 5 Sudeste 14 Sudeste 0 -- -- 67
2018-11-21 12:00:00 11.1 4 Sudeste 11 Sudeste 0.2 -- -- 73
2018-11-21 11:00:00 7.7 3 Sudeste 6 Sudoeste 0 -- -- 91
2018-11-21 10:00:00 4 2 Sudoeste 7 Sudeste 0 -- -- 98
2018-11-21 09:00:00 4 6 Sudeste 8 Sudeste 0 -- -- 98
2018-11-21 08:00:00 3.4 4 Oeste 12 Sudeste 0 -- -- 100
2018-11-21 07:00:00 3.2 7 Este 10 Este 0 -- -- 99
2018-11-21 06:00:00 3.4 0 Calma 4 Este 0 -- -- 99
2018-11-21 05:00:00 3.6 0 Calma 4 Oeste 0 -- -- 98
2018-11-21 04:00:00 4.1 0 Calma 9 Sudoeste 0 -- -- 97
2018-11-21 03:00:00 4.2 4 Sudoeste 11 Noroeste 0 -- -- 100
2018-11-21 02:00:00 3.9 6 Oeste 8 Oeste 0 -- -- 100
2018-11-21 01:00:00 3.9 4 Sudeste 13 Sudeste 0 -- -- 100
2018-11-21 00:00:00 4 6 Sudeste 9 Sudeste 0 -- -- 99
2018-11-20 23:00:00 4.2 3 Sur 6 Oeste 0 -- -- 99
2018-11-20 22:00:00 3.9 3 Este 12 Sudeste 0 -- -- 99
2018-11-20 21:00:00 4.4 9 Sudeste 12 Sudeste 0 -- -- 96
2018-11-20 20:00:00 4.7 6 Sudeste 9 Sudeste 0 -- -- 96
2018-11-20 19:00:00 4.8 6 Sudeste 10 Este 0 -- -- 94
2018-11-20 18:00:00 5.2 0 Calma 8 Este 0 -- -- 91
2018-11-20 17:00:00 5.6 4 Este 6 Sur 0 -- -- 94
2018-11-20 16:00:00 5.7 0 Calma 8 Sudeste 0 -- -- 96
2018-11-20 15:00:00 5.7 4 Sudeste 17 Sudeste 0 -- -- 95
2018-11-20 14:00:00 6.1 5 Este 12 Este 0 -- -- 100
2018-11-20 13:00:00 5.2 6 Sudeste 27 Este 0 -- -- 100
2018-11-20 12:00:00 5.6 9 Este 22 Este 0 -- -- 100
2018-11-20 11:00:00 5.4 14 Este 24 Este 0 -- -- 100
2018-11-20 10:00:00 5.3 6 Sudeste 27 Sudeste 0 -- -- 100
2018-11-20 09:00:00 5.4 17 Este 30 Este 0 -- -- 100
2018-11-20 08:00:00 6 10 Sudeste 19 Sudeste 0.6 -- -- 100
2018-11-20 07:00:00 6.1 6 Sudeste 17 Sudeste 0.6 -- -- 100
2018-11-20 06:00:00 6.3 7 Sudeste 12 Sudeste 0 -- -- 100
2018-11-20 05:00:00 6.5 5 Sudeste 13 Sudeste 0.4 -- -- 100
2018-11-20 04:00:00 6.8 7 Sudeste 16 Este 1.2 -- -- 100
2018-11-20 03:00:00 7.5 4 Este 15 Sudeste 0.4 -- -- 100
2018-11-20 02:00:00 7.9 3 Sudeste 13 Sudeste 0.2 -- -- 100
2018-11-20 01:00:00 8.2 3 Sur 8 Sudeste 0.4 -- -- 100
2018-11-20 00:00:00 8.7 3 Sudoeste 11 Sur 0.2 -- -- 99
2018-11-19 23:00:00 9.2 0 Calma 4 Sudoeste 0 -- -- 98
2018-11-19 22:00:00 9.3 2 Sur 8 Sur 0 -- -- 98
2018-11-19 21:00:00 9.5 4 Sudoeste 7 Oeste 0 -- -- 98
2018-11-19 20:00:00 9.7 3 Oeste 9 Oeste 0 -- -- 97
2018-11-19 19:00:00 10 6 Oeste 15 Oeste 0 -- -- 95
2018-11-19 18:00:00 10.3 9 Oeste 25 Oeste 0 -- -- 91
2018-11-19 17:00:00 10.7 21 Oeste 29 Oeste 0 -- -- 88
2018-11-19 16:00:00 14.3 16 Oeste 26 Oeste 0 -- -- 75
2018-11-19 15:00:00 14.4 14 Noroeste 22 Oeste 0 -- -- 75
2018-11-19 14:00:00 13.6 5 Oeste 9 Oeste 0 -- -- 69
2018-11-19 13:00:00 14.3 5 Oeste 9 Oeste 0 -- -- 66
2018-11-19 12:00:00 14.4 4 Sudoeste 5 Sudoeste 0 -- -- 67
2018-11-19 11:00:00 11.8 2 Sudoeste 4 Sudoeste 0 -- -- 79
2018-11-19 10:00:00 8.5 0 Calma 5 Sudoeste 0 -- -- 95
2018-11-19 09:00:00 7.6 0 Calma 5 Sudoeste 0 -- -- 98
2018-11-19 08:00:00 7.7 3 Este 5 Este 0 -- -- 98
2018-11-19 07:00:00 7.5 0 Calma 5 Sudoeste 0 -- -- 99
2018-11-19 06:00:00 8.2 4 Sur 6 Sudeste 0 -- -- 99
2018-11-19 05:00:00 8.5 3 Oeste 6 Oeste 0 -- -- 99
2018-11-19 04:00:00 8.7 4 Nordeste 10 Sudoeste 0 -- -- 99
2018-11-19 03:00:00 9.1 3 Oeste 10 Noroeste 0 -- -- 100
2018-11-19 02:00:00 9.4 2 Sudoeste 5 Sudoeste 0.2 -- -- 100
2018-11-19 01:00:00 9.3 5 Sudoeste 8 Sudoeste 0 -- -- 100
2018-11-19 00:00:00 9.4 8 Sudeste 17 Sudeste 0.4 -- -- 100
2018-11-18 23:00:00 9.6 3 Sur 7 Sudeste 0.2 -- -- 100
2018-11-18 22:00:00 9.7 4 Este 11 Este 0 -- -- 100
2018-11-18 21:00:00 10 7 Sudeste 12 Sudeste 0 -- -- 99
2018-11-18 20:00:00 10.5 4 Sudeste 8 Sudeste 0.2 -- -- 97
2018-11-18 19:00:00 10.5 0 Calma 14 Este 0 -- -- 97
2018-11-18 18:00:00 10.8 3 Sur 7 Este 0 -- -- 95
2018-11-18 17:00:00 11.4 5 Sudoeste 11 Sudoeste 0 -- -- 91
2018-11-18 16:00:00 11.5 10 Oeste 15 Noroeste 0 -- -- 91
2018-11-18 15:00:00 12.5 12 Noroeste 24 Oeste 0 -- -- 87
2018-11-18 14:00:00 14.1 17 Oeste 23 Oeste 0 -- -- 76
2018-11-18 13:00:00 13 11 Oeste 17 Oeste 0 -- -- 83
2018-11-18 12:00:00 14.2 7 Oeste 10 Sudoeste 0 -- -- 79
2018-11-18 11:00:00 11.8 0 Calma 9 Sudeste 0 -- -- 92
2018-11-18 10:00:00 9.2 10 Sudeste 12 Este 0 -- -- 100
2018-11-18 09:00:00 8.3 2 Norte 9 Sudoeste 0 -- -- 100
2018-11-18 08:00:00 8.6 4 Oeste 9 Sudoeste 0 -- -- 99
2018-11-18 07:00:00 9.2 8 Sudoeste 14 Sudoeste 0 -- -- 98
2018-11-18 06:00:00 9.4 10 Oeste 13 Oeste 0 -- -- 84
2018-11-18 05:00:00 10.6 3 Oeste 8 Oeste 0 -- -- 74
2018-11-18 04:00:00 10.2 0 Calma 6 Este 0 -- -- 75
2018-11-18 03:00:00 10.5 4 Este 5 Este 0 -- -- 76
2018-11-18 02:00:00 10.3 2 Este 6 Este 0 -- -- 78
2018-11-18 01:00:00 10.9 3 Nordeste 5 Nordeste 0 -- -- 76
2018-11-18 00:00:00 10.9 4 Nordeste 5 Nordeste 0 -- -- 78
2018-11-17 23:00:00 11.2 2 Sudeste 8 Nordeste 0 -- -- 78
2018-11-17 22:00:00 11.7 3 Este 10 Nordeste 0 -- -- 77
2018-11-17 21:00:00 12.2 0 Calma 13 Sudeste 0 -- -- 76
2018-11-17 20:00:00 13.2 10 Sudeste 14 Sudeste 0 -- -- 72
2018-11-17 19:00:00 14.4 8 Sudeste 14 Sudeste 0 -- -- 66
2018-11-17 18:00:00 15.5 9 Sudeste 14 Sudeste 0 -- -- 64
2018-11-17 17:00:00 17.9 8 Sudeste 10 Sudeste 0 -- -- 54
2018-11-17 16:00:00 20.7 2 Sur 9 Oeste 0 -- -- 46
2018-11-17 15:00:00 20.6 2 Sudeste 10 Sudoeste 0 -- -- 47
2018-11-17 14:00:00 19.4 3 Este 9 Nordeste 0 -- -- 57
2018-11-17 13:00:00 19.1 3 Sudoeste 7 Oeste 0 -- -- 58
2018-11-17 12:00:00 18.3 4 Sudeste 10 Sudeste 0 -- -- 58
2018-11-17 11:00:00 15.9 8 Sudeste 12 Sudeste 0 -- -- 65
2018-11-17 10:00:00 13.6 6 Sudeste 15 Sudeste 0 -- -- 71
2018-11-17 09:00:00 10.8 3 Sudeste 13 Sudeste 0 -- -- 78
2018-11-17 08:00:00 11.5 5 Sudeste 12 Sudeste 0 -- -- 74
2018-11-17 07:00:00 12.4 6 Sudeste 15 Este 0 -- -- 70
2018-11-17 06:00:00 11.6 9 Sudeste 17 Sudeste 0 -- -- 74
2018-11-17 05:00:00 11.8 10 Sudeste 15 Sudeste 0 -- -- 74
2018-11-17 04:00:00 11.5 4 Sudoeste 12 Sudeste 0 -- -- 76
2018-11-17 03:00:00 11.7 3 Este 8 Este 0 -- -- 76
2018-11-17 02:00:00 12 0 Calma 9 Sudeste 0 -- -- 75
2018-11-17 01:00:00 12.5 4 Sudeste 13 Sudeste 0 -- -- 74
2018-11-17 00:00:00 13.4 6 Sudeste 14 Sudeste 0 -- -- 71
2018-11-16 23:00:00 13.2 10 Sudeste 13 Sudeste 0 -- -- 72
2018-11-16 22:00:00 13.1 10 Sudeste 14 Sudeste 0 -- -- 74
2018-11-16 21:00:00 12.8 5 Sudeste 8 Este 0 -- -- 78
2018-11-16 20:00:00 13.4 4 Sudeste 12 Sudeste 0 -- -- 76
2018-11-16 19:00:00 13.5 4 Este 10 Sudeste 0 -- -- 78
2018-11-16 18:00:00 14.6 3 Sudeste 8 Sudeste 0 -- -- 72
2018-11-16 17:00:00 16.2 8 Sudeste 14 Sudeste 0 -- -- 65
2018-11-16 16:00:00 17.6 6 Sur 10 Sudeste 0 -- -- 58
2018-11-16 15:00:00 18.5 8 Sudeste 13 Este 0 -- -- 55
2018-11-16 14:00:00 20 4 Sudeste 8 Oeste 0 -- -- 54
2018-11-16 13:00:00 19.2 2 Sudeste 6 Sudeste 0 -- -- 55
2018-11-16 12:00:00 17.3 3 Oeste 6 Sudoeste 0 -- -- 64
2018-11-16 11:00:00 15 3 Sudoeste 15 Sudeste -- -- -- 69
2018-11-16 10:00:00 12.4 2 Sudeste 9 Este -- -- -- 73
2018-11-16 09:00:00 11.3 8 Sudeste 16 Sudeste 0 -- -- 76
2018-11-16 08:00:00 11.5 9 Sudeste 17 Sudeste 0 -- -- 75
2018-11-16 07:00:00 11.5 6 Sudeste 17 Sudeste 0 -- -- 76
2018-11-16 06:00:00 11.2 6 Sudeste 12 Sudeste 0 -- -- 78
2018-11-16 05:00:00 11.2 3 Nordeste 8 Este 0 -- -- 78
2018-11-16 04:00:00 11.4 2 Norte 7 Oeste 0 -- -- 80
2018-11-16 03:00:00 11.5 0 Calma 8 Sudoeste 0 -- -- 81
2018-11-16 02:00:00 11.3 3 Sur 14 Sudeste 0 -- -- 82
2018-11-16 01:00:00 11.4 9 Sudeste 21 Sudeste 0 -- -- 81
2018-11-16 00:00:00 11.2 13 Sudeste 22 Sudeste 0 -- -- 85
2018-11-15 23:00:00 11.5 8 Sudeste 13 Sudeste 0 -- -- 85
2018-11-15 22:00:00 12.6 3 Este 5 Este 0 -- -- 82
2018-11-15 21:00:00 13 4 Noroeste 7 Este 0 -- -- 80
2018-11-15 20:00:00 13.4 3 Sur 15 Sudeste 0 -- -- 79
2018-11-15 19:00:00 14.5 11 Sudeste 13 Sudeste 0 -- -- 73
2018-11-15 18:00:00 15.1 9 Sudeste 19 Este 0 -- -- 70
2018-11-15 17:00:00 17 10 Sudeste 19 Sudeste 0 -- -- 65
2018-11-15 16:00:00 17.9 2 Sudeste 9 Sur 0 -- -- 67
2018-11-15 15:00:00 18.5 2 Sudeste 10 Oeste 0 -- -- 61
2018-11-15 14:00:00 18.5 7 Noroeste 10 Noroeste 0 -- -- 62
2018-11-15 13:00:00 19 2 Oeste 10 Sudoeste 0 -- -- 58
2018-11-15 12:00:00 19.7 7 Oeste 12 Oeste 0 -- -- 52
2018-11-15 11:00:00 17.3 4 Noroeste 9 Oeste 0 -- -- 60
2018-11-15 10:00:00 14.9 5 Sur 19 Este 0 -- -- 69
2018-11-15 09:00:00 14.3 8 Sudeste 15 Sudeste 0 -- -- 66
2018-11-15 08:00:00 13.3 4 Sur 14 Este 0 -- -- 69
2018-11-15 07:00:00 13 11 Sudeste 17 Sudeste 0 -- -- 71
2018-11-15 06:00:00 13.6 7 Sudeste 12 Sudeste 0 -- -- 69
2018-11-15 05:00:00 13.1 4 Sudeste 14 Sudeste 0 -- -- 71
2018-11-15 04:00:00 12.2 6 Sudeste 11 Sudoeste 0 -- -- 74
2018-11-15 03:00:00 12.5 7 Sudeste 13 Este 0 -- -- 71
2018-11-15 02:00:00 12.5 2 Sudoeste 9 Sudeste 0 -- -- 74
2018-11-15 01:00:00 12.9 8 Sur 15 Sudeste 0 -- -- 72
2018-11-15 00:00:00 12 5 Sudeste 12 Sudoeste 0 -- -- 77
2018-11-14 23:00:00 11.9 3 Sudeste 10 Sudeste 0 -- -- 77
2018-11-14 22:00:00 12.4 5 Sudeste 6 Sudeste 0 -- -- 79
2018-11-14 21:00:00 13.4 3 Sur 6 Sudoeste 0 -- -- 75
2018-11-14 20:00:00 13.7 3 Noroeste 4 Noroeste 0 -- -- 72
2018-11-14 19:00:00 14 2 Este 5 Nordeste 0 -- -- 73
2018-11-14 18:00:00 15.1 2 Sudeste 11 Sudeste 0 -- -- 69
2018-11-14 17:00:00 16.6 9 Sudeste 13 Sudeste 0 -- -- 64
2018-11-14 16:00:00 19.1 5 Sur 12 Oeste 0 -- -- 54
2018-11-14 15:00:00 20.1 5 Oeste 14 Oeste 0 -- -- 52
2018-11-14 14:00:00 19.5 5 Oeste 9 Oeste 0 -- -- 58
2018-11-14 13:00:00 18 5 Oeste 15 Sudoeste 0 -- -- 55
2018-11-14 12:00:00 16.2 4 Oeste 9 Oeste 0 -- -- 59
2018-11-14 11:00:00 14.2 2 Sudoeste 6 Oeste 0 -- -- 68
2018-11-14 10:00:00 11.4 2 Sur 5 Sudoeste 0 -- -- 74
2018-11-14 09:00:00 10.2 0 Calma 4 Oeste 0 -- -- 76
2018-11-14 08:00:00 9.7 2 Sudoeste 5 Sudoeste 0 -- -- 79
2018-11-14 07:00:00 9.7 2 Sudoeste 6 Sudoeste 0 -- -- 80
2018-11-14 06:00:00 9.1 0 Calma 6 Este 0 -- -- 85
2018-11-14 05:00:00 9.4 2 Oeste 5 Nordeste 0 -- -- 84
2018-11-14 04:00:00 9.5 0 Calma 5 Este 0 -- -- 85
2018-11-14 03:00:00 9.8 3 Sudoeste 5 Oeste 0 -- -- 84
2018-11-14 02:00:00 9.5 0 Calma 7 Sudoeste 0 -- -- 88
2018-11-14 01:00:00 8.9 3 Oeste 6 Oeste 0 -- -- 90
2018-11-14 00:00:00 9.3 4 Oeste 9 Oeste 0 -- -- 90
2018-11-13 23:00:00 9.1 4 Sudoeste 8 Sudoeste 0 -- -- 90
2018-11-13 22:00:00 8.7 5 Oeste 12 Oeste 0 -- -- 96
2018-11-13 21:00:00 8.2 7 Sudeste 14 Este 0 -- -- 97
2018-11-13 20:00:00 9.3 5 Sudeste 7 Este 0 -- -- 92
2018-11-13 19:00:00 9.9 2 Sur 9 Sudeste 0 -- -- 90
2018-11-13 18:00:00 10.9 4 Sudeste 15 Sudeste 0 -- -- 89
2018-11-13 17:00:00 12.6 11 Sudeste 15 Sudeste 0 -- -- 79
2018-11-13 16:00:00 15 6 Sudeste 9 Sudeste 0 -- -- 68
2018-11-13 15:00:00 15.3 5 Sur 14 Sudeste 0 -- -- 68
2018-11-13 14:00:00 14.9 6 Sudeste 10 Sudeste 0 -- -- 66
2018-11-13 13:00:00 14.1 4 Sudoeste 8 Sudoeste 0 -- -- 72
2018-11-13 12:00:00 13 3 Sudeste 7 Sudoeste 0 -- -- 75
2018-11-13 11:00:00 10 3 Oeste 9 Sur 0 -- -- 87
2018-11-13 10:00:00 7.1 6 Sur 18 Sudeste 0 -- -- 96
2018-11-13 09:00:00 5.5 11 Sudeste 15 Sudeste 0 -- -- 100
2018-11-13 08:00:00 5.3 5 Este 8 Nordeste 0 -- -- 100
2018-11-13 07:00:00 5.6 4 Este 6 Este 0 -- -- 100
2018-11-13 06:00:00 5.7 3 Sudeste 12 Sudeste 0 -- -- 100
2018-11-13 05:00:00 6 4 Este 7 Este 0 -- -- 100
2018-11-13 04:00:00 6.4 3 Este 9 Este 0 -- -- 100
2018-11-13 03:00:00 6.8 6 Sudeste 9 Sudeste 0 -- -- 100
2018-11-13 02:00:00 7.3 5 Este 6 Este 0 -- -- 99
2018-11-13 01:00:00 7.9 3 Este 4 Este 0 -- -- 99
2018-11-13 00:00:00 8.5 4 Sudeste 5 Sudeste 0 -- -- 96
2018-11-12 23:00:00 8.7 4 Sudeste 6 Sudeste 0 -- -- 95
2018-11-12 22:00:00 9.2 3 Sur 11 Sudoeste 0 -- -- 92
2018-11-12 21:00:00 9.4 6 Noroeste 9 Noroeste 0 -- -- 92
2018-11-12 20:00:00 9.8 0 Calma 6 Oeste 0.2 -- -- 87
2018-11-12 19:00:00 9.7 5 Sudoeste 10 Oeste 0 -- -- 89
2018-11-12 18:00:00 10 8 Oeste 14 Sudoeste 0 -- -- 87
2018-11-12 17:00:00 11 8 Oeste 10 Oeste 0 -- -- 86
2018-11-12 16:00:00 11.9 5 Noroeste 9 Noroeste 0 -- -- 83
2018-11-12 15:00:00 12.6 3 Sudeste 8 Este 0 -- -- 84
2018-11-12 14:00:00 12.5 3 Sudeste 12 Sudeste 0 -- -- 82
2018-11-12 13:00:00 12.3 9 Sudeste 17 Sudeste 0 -- -- 88
2018-11-12 12:00:00 11.7 4 Sudeste 8 Sudeste 0 -- -- 99
2018-11-12 11:00:00 11.1 0 Calma 3 Sudoeste 0 -- -- 100
2018-11-12 10:00:00 9.5 0 Calma 4 Sudoeste 0 -- -- 100
2018-11-12 09:00:00 8.7 0 Calma 8 Sudeste 0 -- -- 100
2018-11-12 08:00:00 8.4 6 Sudeste 8 Sudeste 0 -- -- 100
2018-11-12 07:00:00 8.4 2 Sudoeste 4 Sudoeste 0 -- -- 100
2018-11-12 06:00:00 8.5 3 Sudeste 10 Sudeste 0 -- -- 100
2018-11-12 05:00:00 8.4 4 Sudeste 9 Sudeste 0.2 -- -- 100
2018-11-12 04:00:00 8.5 3 Este 12 Norte 0 -- -- 100
2018-11-12 03:00:00 8.6 12 Noroeste 18 Noroeste 0.2 -- -- 100
2018-11-12 02:00:00 9 15 Noroeste 29 Oeste 0.4 -- -- 100
2018-11-12 01:00:00 8.9 9 Oeste 14 Oeste 0.6 -- -- 100
2018-11-12 00:00:00 9.4 9 Oeste 14 Oeste 1.8 -- -- 100
2018-11-11 23:00:00 9.9 6 Oeste 9 Oeste 0.6 -- -- 100
2018-11-11 22:00:00 10 4 Sudeste 8 Este 0.6 -- -- 100
2018-11-11 21:00:00 10.1 2 Sur 16 Este 0.8 -- -- 100
2018-11-11 20:00:00 10.4 9 Sudeste 21 Este 0.8 -- -- 100
2018-11-11 19:00:00 10.7 4 Sur 9 Este 2 -- -- 100
2018-11-11 18:00:00 10.8 3 Oeste 9 Sudeste 2.8 -- -- 100
2018-11-11 17:00:00 11.1 6 Sudeste 15 Sudeste 2.2 -- -- 100
2018-11-11 16:00:00 11.2 5 Sudeste 31 Sudeste 1.2 -- -- 100
2018-11-11 15:00:00 11.2 24 Sudeste 31 Sudeste 2.8 -- -- 99
2018-11-11 14:00:00 11.4 8 Oeste 26 Oeste 1.4 -- -- 96
2018-11-11 13:00:00 12.9 25 Oeste 33 Oeste 0 -- -- 84
2018-11-11 12:00:00 15.3 25 Oeste 68 Sudoeste 0 -- -- 70
2018-11-11 11:00:00 18.2 48 Sudoeste 76 Sudoeste 0 -- -- 50
2018-11-11 10:00:00 17 45 Sudoeste 86 Sudoeste 0 -- -- 53
2018-11-11 09:00:00 16.4 14 Sudeste 73 Sudoeste 0 -- -- 54
2018-11-11 08:00:00 16.4 26 Sur 58 Sudoeste 0 -- -- 54
2018-11-11 07:00:00 15 14 Nordeste 57 Sudoeste 0 -- -- 62
2018-11-11 06:00:00 16.3 43 Sudoeste 80 Sudoeste 0 -- -- 54
2018-11-11 05:00:00 15.7 12 Sudoeste 75 Sur 0 -- -- 56
2018-11-11 04:00:00 15.8 46 Sudoeste 80 Sudoeste 0 -- -- 55
2018-11-11 03:00:00 15.6 38 Sudoeste 67 Sudoeste 0 -- -- 56
2018-11-11 02:00:00 15.2 25 Sudoeste 50 Sudoeste 0 -- -- 56
2018-11-11 01:00:00 15.4 28 Sudoeste 77 Sudoeste 0 -- -- 53
2018-11-11 00:00:00 15.1 22 Sudoeste 51 Sudoeste 0 -- -- 51
2018-11-10 23:00:00 12.9 18 Nordeste 33 Norte 0 -- -- 61
2018-11-10 22:00:00 11.9 14 Nordeste 23 Sur 0 -- -- 65
2018-11-10 21:00:00 12.6 25 Sudoeste 50 Sur 0 -- -- 65
2018-11-10 20:00:00 10.2 6 Sudeste 14 Este 0 -- -- 98
2018-11-10 19:00:00 10.7 6 Sur 13 Este 0 -- -- 95
2018-11-10 18:00:00 11.8 10 Sudeste 16 Sudeste 0 -- -- 91
2018-11-10 17:00:00 12.8 4 Sudeste 22 Oeste 0 -- -- 86
2018-11-10 16:00:00 12.6 18 Oeste 37 Oeste 0 -- -- 86
2018-11-10 15:00:00 14.7 20 Oeste 31 Oeste 0 -- -- 75
2018-11-10 14:00:00 14.7 2 Noroeste 14 Este 0 -- -- 85
2018-11-10 13:00:00 13.7 8 Sudeste 17 Sudeste 0 -- -- 94
2018-11-10 12:00:00 14.2 3 Sur 16 Sudeste 0 -- -- 92
2018-11-10 11:00:00 14.3 7 Sudeste 15 Sudeste 0 -- -- 99
2018-11-10 10:00:00 11.8 7 Sudeste 16 Nordeste 0 -- -- 100
2018-11-10 09:00:00 11.1 7 Noroeste 14 Noroeste 0 -- -- 100
2018-11-10 08:00:00 10.9 3 Sur 12 Sudeste 0.2 -- -- 100
2018-11-10 07:00:00 11 11 Sudeste 16 Este 0.6 -- -- 99
2018-11-10 06:00:00 10.9 5 Sur 23 Oeste 0.8 -- -- 99
2018-11-10 05:00:00 11.9 3 Sudeste 21 Sudeste 0 -- -- 93
2018-11-10 04:00:00 12.6 8 Sur 32 Sudoeste 0 -- -- 88
2018-11-10 03:00:00 15.2 18 Sur 37 Sur 0 -- -- 69
2018-11-10 02:00:00 17.5 22 Nordeste 56 Sudoeste 0 -- -- 55
2018-11-10 01:00:00 18.1 40 Sudoeste 99 Sudoeste 0 -- -- 49
2018-11-10 00:00:00 18 46 Sudoeste 85 Sudoeste 0 -- -- 49